sensor_id;sensor_type;location;lat;lon;timestamp;P1;durP1;ratioP1;P2;durP2;ratioP2
56477;SDS011;42382;53.210;5.772;2023-05-19T03:47:44;12.95;;;3.35;;
56477;SDS011;42382;53.210;5.772;2023-05-19T03:50:11;14.43;;;3.00;;
56477;SDS011;42382;53.210;5.772;2023-05-19T03:52:36;16.00;;;3.33;;
56477;SDS011;42382;53.210;5.772;2023-05-19T03:55:03;14.90;;;4.25;;
56477;SDS011;42382;53.210;5.772;2023-05-19T03:57:31;14.60;;;3.80;;
56477;SDS011;42382;53.210;5.772;2023-05-19T03:59:57;17.58;;;3.08;;
56477;SDS011;42382;53.210;5.772;2023-05-19T04:02:23;11.65;;;3.30;;
56477;SDS011;42382;53.210;5.772;2023-05-19T04:04:49;13.82;;;3.38;;
56477;SDS011;42382;53.210;5.772;2023-05-19T04:07:15;16.05;;;3.90;;
56477;SDS011;42382;53.210;5.772;2023-05-19T04:09:41;10.90;;;2.95;;
56477;SDS011;42382;53.210;5.772;2023-05-19T04:12:06;10.98;;;3.08;;
56477;SDS011;42382;53.210;5.772;2023-05-19T04:14:32;11.35;;;3.92;;
56477;SDS011;42382;53.210;5.772;2023-05-19T04:16:58;15.38;;;3.70;;
56477;SDS011;42382;53.210;5.772;2023-05-19T04:19:24;15.82;;;4.00;;
56477;SDS011;42382;53.210;5.772;2023-05-19T04:21:50;12.93;;;4.18;;
56477;SDS011;42382;53.210;5.772;2023-05-19T04:24:15;14.95;;;4.13;;
56477;SDS011;42382;53.210;5.772;2023-05-19T04:26:41;14.57;;;4.38;;
56477;SDS011;42382;53.210;5.772;2023-05-19T04:29:10;13.60;;;3.55;;
56477;SDS011;42382;53.210;5.772;2023-05-19T04:31:38;17.02;;;3.70;;
56477;SDS011;42382;53.210;5.772;2023-05-19T04:34:05;18.45;;;3.80;;
56477;SDS011;42382;53.210;5.772;2023-05-19T04:36:32;10.00;;;3.45;;
56477;SDS011;42382;53.210;5.772;2023-05-19T04:38:58;17.25;;;4.30;;
56477;SDS011;42382;53.210;5.772;2023-05-19T04:41:31;14.32;;;4.32;;
56477;SDS011;42382;53.210;5.772;2023-05-19T04:43:57;15.65;;;4.05;;
56477;SDS011;42382;53.210;5.772;2023-05-19T04:46:23;16.65;;;3.42;;
56477;SDS011;42382;53.210;5.772;2023-05-19T04:48:50;17.52;;;3.67;;
56477;SDS011;42382;53.210;5.772;2023-05-19T04:51:17;14.73;;;3.95;;
56477;SDS011;42382;53.210;5.772;2023-05-19T04:53:43;17.20;;;3.40;;
56477;SDS011;42382;53.210;5.772;2023-05-19T04:56:09;19.02;;;4.22;;
56477;SDS011;42382;53.210;5.772;2023-05-19T04:58:39;15.13;;;3.63;;
56477;SDS011;42382;53.210;5.772;2023-05-19T05:01:05;16.20;;;4.65;;
56477;SDS011;42382;53.210;5.772;2023-05-19T05:03:33;18.65;;;3.75;;
56477;SDS011;42382;53.210;5.772;2023-05-19T05:05:59;19.40;;;4.20;;
56477;SDS011;42382;53.210;5.772;2023-05-19T05:08:25;18.58;;;4.00;;
56477;SDS011;42382;53.210;5.772;2023-05-19T05:10:51;11.02;;;3.30;;
56477;SDS011;42382;53.210;5.772;2023-05-19T05:13:21;20.83;;;3.88;;
56477;SDS011;42382;53.210;5.772;2023-05-19T05:15:47;17.75;;;4.00;;
56477;SDS011;42382;53.210;5.772;2023-05-19T05:18:14;14.60;;;4.68;;
56477;SDS011;42382;53.210;5.772;2023-05-19T05:20:40;17.85;;;4.22;;
56477;SDS011;42382;53.210;5.772;2023-05-19T05:23:07;12.35;;;3.70;;
56477;SDS011;42382;53.210;5.772;2023-05-19T05:25:34;13.13;;;3.42;;
56477;SDS011;42382;53.210;5.772;2023-05-19T05:28:00;13.90;;;3.67;;
56477;SDS011;42382;53.210;5.772;2023-05-19T05:30:29;17.38;;;3.55;;
56477;SDS011;42382;53.210;5.772;2023-05-19T05:32:55;14.93;;;4.65;;
56477;SDS011;42382;53.210;5.772;2023-05-19T05:35:21;11.63;;;4.03;;
56477;SDS011;42382;53.210;5.772;2023-05-19T05:37:48;17.55;;;4.18;;
56477;SDS011;42382;53.210;5.772;2023-05-19T05:40:13;11.55;;;3.60;;
56477;SDS011;42382;53.210;5.772;2023-05-19T05:42:40;14.57;;;4.00;;
56477;SDS011;42382;53.210;5.772;2023-05-19T05:45:06;12.68;;;4.15;;
56477;SDS011;42382;53.210;5.772;2023-05-19T05:47:32;15.73;;;4.35;;
56477;SDS011;42382;53.210;5.772;2023-05-19T05:49:58;16.38;;;4.10;;
56477;SDS011;42382;53.210;5.772;2023-05-19T05:52:25;16.25;;;4.00;;
56477;SDS011;42382;53.210;5.772;2023-05-19T05:54:54;14.23;;;4.28;;
56477;SDS011;42382;53.210;5.772;2023-05-19T05:57:20;12.23;;;3.70;;
56477;SDS011;42382;53.210;5.772;2023-05-19T05:59:46;13.80;;;4.10;;
56477;SDS011;42382;53.210;5.772;2023-05-19T06:02:12;13.52;;;4.25;;
56477;SDS011;42382;53.210;5.772;2023-05-19T06:04:37;13.80;;;4.03;;
56477;SDS011;42382;53.210;5.772;2023-05-19T06:07:04;17.17;;;3.58;;
56477;SDS011;42382;53.210;5.772;2023-05-19T06:09:30;11.80;;;3.97;;
56477;SDS011;42382;53.210;5.772;2023-05-19T06:11:57;16.73;;;3.97;;
56477;SDS011;42382;53.210;5.772;2023-05-19T06:14:25;9.57;;;3.55;;
56477;SDS011;42382;53.210;5.772;2023-05-19T06:16:51;14.30;;;3.65;;
56477;SDS011;42382;53.210;5.772;2023-05-19T06:19:17;14.27;;;4.05;;
56477;SDS011;42382;53.210;5.772;2023-05-19T06:21:44;13.95;;;3.30;;
56477;SDS011;42382;53.210;5.772;2023-05-19T06:24:09;17.75;;;4.45;;
56477;SDS011;42382;53.210;5.772;2023-05-19T06:26:35;12.65;;;3.72;;
56477;SDS011;42382;53.210;5.772;2023-05-19T06:29:01;15.18;;;3.80;;
56477;SDS011;42382;53.210;5.772;2023-05-19T06:31:27;13.77;;;3.90;;
56477;SDS011;42382;53.210;5.772;2023-05-19T06:33:53;17.27;;;4.65;;
56477;SDS011;42382;53.210;5.772;2023-05-19T06:36:18;10.40;;;3.50;;
56477;SDS011;42382;53.210;5.772;2023-05-19T06:38:44;23.23;;;4.80;;
56477;SDS011;42382;53.210;5.772;2023-05-19T06:41:10;16.33;;;3.83;;
56477;SDS011;42382;53.210;5.772;2023-05-19T06:43:36;11.93;;;4.03;;
56477;SDS011;42382;53.210;5.772;2023-05-19T06:46:02;16.60;;;3.75;;
56477;SDS011;42382;53.210;5.772;2023-05-19T06:48:28;13.27;;;3.80;;
56477;SDS011;42382;53.210;5.772;2023-05-19T06:50:54;11.68;;;4.07;;
56477;SDS011;42382;53.210;5.772;2023-05-19T06:53:19;13.68;;;3.20;;
56477;SDS011;42382;53.210;5.772;2023-05-19T06:55:45;12.30;;;3.50;;
56477;SDS011;42382;53.210;5.772;2023-05-19T06:58:14;13.05;;;4.22;;
56477;SDS011;42382;53.210;5.772;2023-05-19T07:00:39;9.40;;;3.70;;
56477;SDS011;42382;53.210;5.772;2023-05-19T07:03:05;11.27;;;3.40;;
56477;SDS011;42382;53.210;5.772;2023-05-19T07:05:31;15.00;;;3.80;;
56477;SDS011;42382;53.210;5.772;2023-05-19T07:07:56;11.68;;;4.13;;
56477;SDS011;42382;53.210;5.772;2023-05-19T07:10:22;11.27;;;3.10;;
56477;SDS011;42382;53.210;5.772;2023-05-19T07:12:47;13.60;;;3.92;;
56477;SDS011;42382;53.210;5.772;2023-05-19T07:15:13;10.43;;;2.80;;
56477;SDS011;42382;53.210;5.772;2023-05-19T07:17:39;14.48;;;2.95;;
56477;SDS011;42382;53.210;5.772;2023-05-19T07:20:05;9.02;;;2.40;;
56477;SDS011;42382;53.210;5.772;2023-05-19T07:22:34;11.77;;;2.25;;
56477;SDS011;42382;53.210;5.772;2023-05-19T07:25:00;11.20;;;2.50;;
56477;SDS011;42382;53.210;5.772;2023-05-19T07:27:26;8.90;;;2.40;;
56477;SDS011;42382;53.210;5.772;2023-05-19T07:29:52;6.23;;;1.50;;
56477;SDS011;42382;53.210;5.772;2023-05-19T07:32:17;9.38;;;1.92;;
56477;SDS011;42382;53.210;5.772;2023-05-19T07:34:43;10.05;;;2.20;;
56477;SDS011;42382;53.210;5.772;2023-05-19T07:37:09;9.02;;;1.70;;
56477;SDS011;42382;53.210;5.772;2023-05-19T07:39:34;7.72;;;1.83;;
56477;SDS011;42382;53.210;5.772;2023-05-19T07:42:00;7.18;;;1.92;;
56477;SDS011;42382;53.210;5.772;2023-05-19T07:44:26;8.68;;;2.13;;
56477;SDS011;42382;53.210;5.772;2023-05-19T07:46:53;7.60;;;1.52;;
56477;SDS011;42382;53.210;5.772;2023-05-19T07:49:18;6.28;;;1.48;;
56477;SDS011;42382;53.210;5.772;2023-05-19T07:51:44;7.90;;;2.13;;
56477;SDS011;42382;53.210;5.772;2023-05-19T07:54:10;7.53;;;1.73;;
56477;SDS011;42382;53.210;5.772;2023-05-19T07:56:35;9.32;;;2.03;;
56477;SDS011;42382;53.210;5.772;2023-05-19T07:59:02;7.68;;;1.95;;
56477;SDS011;42382;53.210;5.772;2023-05-19T08:01:28;5.53;;;1.40;;
56477;SDS011;42382;53.210;5.772;2023-05-19T08:03:54;5.28;;;1.48;;
56477;SDS011;42382;53.210;5.772;2023-05-19T08:30:37;6.60;;;1.70;;
56477;SDS011;42382;53.210;5.772;2023-05-19T08:33:03;6.78;;;1.88;;
56477;SDS011;42382;53.210;5.772;2023-05-19T08:35:28;9.38;;;2.60;;
56477;SDS011;42382;53.210;5.772;2023-05-19T08:37:54;6.60;;;1.75;;
56477;SDS011;42382;53.210;5.772;2023-05-19T10:11:09;5.72;;;1.88;;
56477;SDS011;42382;53.210;5.772;2023-05-19T10:13:36;6.22;;;2.08;;
56477;SDS011;42382;53.210;5.772;2023-05-19T10:16:03;6.55;;;1.85;;
56477;SDS011;42382;53.210;5.772;2023-05-19T10:18:30;6.38;;;1.50;;
56477;SDS011;42382;53.210;5.772;2023-05-19T10:20:57;6.03;;;1.67;;
56477;SDS011;42382;53.210;5.772;2023-05-19T10:23:25;6.18;;;1.70;;
56477;SDS011;42382;53.210;5.772;2023-05-19T10:25:51;5.85;;;1.75;;
56477;SDS011;42382;53.210;5.772;2023-05-19T10:28:20;8.13;;;2.13;;
56477;SDS011;42382;53.210;5.772;2023-05-19T10:30:49;7.05;;;2.20;;
56477;SDS011;42382;53.210;5.772;2023-05-19T10:33:18;6.75;;;1.75;;
56477;SDS011;42382;53.210;5.772;2023-05-19T10:36:12;9.77;;;2.05;;
56477;SDS011;42382;53.210;5.772;2023-05-19T10:39:08;5.32;;;1.40;;
56477;SDS011;42382;53.210;5.772;2023-05-19T10:47:24;10.60;;;1.88;;
56477;SDS011;42382;53.210;5.772;2023-05-19T10:49:53;5.25;;;2.22;;
56477;SDS011;42382;53.210;5.772;2023-05-19T10:52:23;7.00;;;1.63;;
56477;SDS011;42382;53.210;5.772;2023-05-19T10:54:54;4.80;;;2.20;;
56477;SDS011;42382;53.210;5.772;2023-05-19T10:57:26;8.98;;;1.88;;
56477;SDS011;42382;53.210;5.772;2023-05-19T10:59:52;4.75;;;1.10;;
56477;SDS011;42382;53.210;5.772;2023-05-19T11:02:36;7.45;;;1.85;;
56477;SDS011;42382;53.210;5.772;2023-05-19T11:07:53;5.32;;;1.65;;
56477;SDS011;42382;53.210;5.772;2023-05-19T11:10:23;5.32;;;2.03;;
56477;SDS011;42382;53.210;5.772;2023-05-19T11:12:49;4.13;;;1.25;;
56477;SDS011;42382;53.210;5.772;2023-05-19T11:15:15;5.32;;;1.60;;
56477;SDS011;42382;53.210;5.772;2023-05-19T11:17:42;7.63;;;2.47;;
56477;SDS011;42382;53.210;5.772;2023-05-19T11:20:25;5.85;;;1.67;;
56477;SDS011;42382;53.210;5.772;2023-05-19T11:23:07;4.75;;;1.52;;
56477;SDS011;42382;53.210;5.772;2023-05-19T11:25:45;6.63;;;2.22;;
56477;SDS011;42382;53.210;5.772;2023-05-19T11:28:19;6.72;;;1.25;;
56477;SDS011;42382;53.210;5.772;2023-05-19T11:30:49;5.20;;;1.67;;
56477;SDS011;42382;53.210;5.772;2023-05-19T11:33:18;6.35;;;1.85;;
56477;SDS011;42382;53.210;5.772;2023-05-19T11:35:45;7.55;;;1.20;;
56477;SDS011;42382;53.210;5.772;2023-05-19T11:38:11;7.68;;;1.52;;
56477;SDS011;42382;53.210;5.772;2023-05-19T11:40:38;7.70;;;1.10;;
56477;SDS011;42382;53.210;5.772;2023-05-19T11:43:07;6.13;;;1.58;;
56477;SDS011;42382;53.210;5.772;2023-05-19T11:45:33;8.02;;;1.70;;
56477;SDS011;42382;53.210;5.772;2023-05-19T11:47:59;5.57;;;1.20;;
56477;SDS011;42382;53.210;5.772;2023-05-19T11:52:52;4.45;;;1.00;;
56477;SDS011;42382;53.210;5.772;2023-05-19T11:55:19;4.75;;;1.13;;
56477;SDS011;42382;53.210;5.772;2023-05-19T11:57:55;3.75;;;1.23;;
56477;SDS011;42382;53.210;5.772;2023-05-19T12:00:26;11.45;;;2.08;;
56477;SDS011;42382;53.210;5.772;2023-05-19T12:03:01;4.32;;;1.10;;
56477;SDS011;42382;53.210;5.772;2023-05-19T12:05:26;8.30;;;1.15;;
56477;SDS011;42382;53.210;5.772;2023-05-19T12:07:53;3.88;;;1.05;;
56477;SDS011;42382;53.210;5.772;2023-05-19T12:10:26;7.20;;;1.33;;
56477;SDS011;42382;53.210;5.772;2023-05-19T12:12:53;5.32;;;1.35;;
56477;SDS011;42382;53.210;5.772;2023-05-19T12:15:19;8.45;;;1.55;;
56477;SDS011;42382;53.210;5.772;2023-05-19T12:17:49;7.22;;;1.45;;
56477;SDS011;42382;53.210;5.772;2023-05-19T12:20:15;7.80;;;1.40;;
56477;SDS011;42382;53.210;5.772;2023-05-19T12:22:43;8.05;;;1.42;;
56477;SDS011;42382;53.210;5.772;2023-05-19T12:25:08;6.13;;;1.23;;
56477;SDS011;42382;53.210;5.772;2023-05-19T12:27:35;5.05;;;1.67;;
56477;SDS011;42382;53.210;5.772;2023-05-19T12:30:02;10.70;;;2.05;;
56477;SDS011;42382;53.210;5.772;2023-05-19T12:32:28;5.10;;;1.35;;
56477;SDS011;42382;53.210;5.772;2023-05-19T12:34:57;12.80;;;3.03;;
56477;SDS011;42382;53.210;5.772;2023-05-19T12:37:26;6.68;;;1.17;;
56477;SDS011;42382;53.210;5.772;2023-05-19T12:39:54;5.03;;;1.48;;
56477;SDS011;42382;53.210;5.772;2023-05-19T12:42:21;5.85;;;1.58;;
56477;SDS011;42382;53.210;5.772;2023-05-19T12:44:48;6.35;;;1.48;;
56477;SDS011;42382;53.210;5.772;2023-05-19T12:47:16;4.07;;;1.42;;
56477;SDS011;42382;53.210;5.772;2023-05-19T12:49:53;5.97;;;1.17;;
56477;SDS011;42382;53.210;5.772;2023-05-19T12:52:40;21.15;;;6.13;;
56477;SDS011;42382;53.210;5.772;2023-05-19T12:55:15;13.27;;;2.83;;
56477;SDS011;42382;53.210;5.772;2023-05-19T12:57:41;4.45;;;1.45;;
56477;SDS011;42382;53.210;5.772;2023-05-19T13:00:15;3.28;;;1.23;;
56477;SDS011;42382;53.210;5.772;2023-05-19T13:02:57;7.63;;;2.30;;
56477;SDS011;42382;53.210;5.772;2023-05-19T13:05:25;8.95;;;2.20;;
56477;SDS011;42382;53.210;5.772;2023-05-19T13:08:04;14.57;;;2.47;;
56477;SDS011;42382;53.210;5.772;2023-05-19T13:10:30;14.07;;;4.20;;
56477;SDS011;42382;53.210;5.772;2023-05-19T13:12:57;10.88;;;2.60;;
56477;SDS011;42382;53.210;5.772;2023-05-19T13:15:27;5.82;;;1.98;;
56477;SDS011;42382;53.210;5.772;2023-05-19T13:17:56;18.73;;;5.22;;
56477;SDS011;42382;53.210;5.772;2023-05-19T13:20:22;14.68;;;3.60;;
56477;SDS011;42382;53.210;5.772;2023-05-19T13:22:48;6.25;;;2.28;;
56477;SDS011;42382;53.210;5.772;2023-05-19T13:25:14;7.03;;;2.45;;
56477;SDS011;42382;53.210;5.772;2023-05-19T13:27:40;5.28;;;2.25;;
56477;SDS011;42382;53.210;5.772;2023-05-19T13:30:07;10.98;;;2.50;;
56477;SDS011;42382;53.210;5.772;2023-05-19T13:32:33;6.53;;;2.75;;
56477;SDS011;42382;53.210;5.772;2023-05-19T13:35:01;12.35;;;2.30;;
56477;SDS011;42382;53.210;5.772;2023-05-19T13:37:27;6.93;;;2.50;;
56477;SDS011;42382;53.210;5.772;2023-05-19T13:39:53;8.75;;;2.78;;
56477;SDS011;42382;53.210;5.772;2023-05-19T13:42:19;6.10;;;2.22;;
56477;SDS011;42382;53.210;5.772;2023-05-19T13:44:45;7.93;;;3.08;;
56477;SDS011;42382;53.210;5.772;2023-05-19T13:47:10;6.65;;;2.70;;
56477;SDS011;42382;53.210;5.772;2023-05-19T13:49:36;10.23;;;2.55;;
56477;SDS011;42382;53.210;5.772;2023-05-19T13:52:02;8.00;;;2.47;;
56477;SDS011;42382;53.210;5.772;2023-05-19T13:54:29;8.52;;;2.33;;
56477;SDS011;42382;53.210;5.772;2023-05-19T13:56:54;8.43;;;2.45;;
56477;SDS011;42382;53.210;5.772;2023-05-19T13:59:20;7.07;;;2.38;;
56477;SDS011;42382;53.210;5.772;2023-05-19T14:01:46;10.68;;;2.63;;
56477;SDS011;42382;53.210;5.772;2023-05-19T14:04:12;9.43;;;2.55;;
56477;SDS011;42382;53.210;5.772;2023-05-19T14:06:38;11.05;;;3.13;;
56477;SDS011;42382;53.210;5.772;2023-05-19T14:09:04;7.10;;;1.95;;
56477;SDS011;42382;53.210;5.772;2023-05-19T14:11:30;7.57;;;2.40;;
56477;SDS011;42382;53.210;5.772;2023-05-19T14:13:56;9.82;;;3.13;;
56477;SDS011;42382;53.210;5.772;2023-05-19T14:16:21;9.90;;;2.40;;
56477;SDS011;42382;53.210;5.772;2023-05-19T14:18:47;10.25;;;2.70;;
56477;SDS011;42382;53.210;5.772;2023-05-19T14:21:13;10.65;;;3.15;;
56477;SDS011;42382;53.210;5.772;2023-05-19T14:23:39;8.50;;;2.63;;
56477;SDS011;42382;53.210;5.772;2023-05-19T14:26:05;11.00;;;2.63;;
56477;SDS011;42382;53.210;5.772;2023-05-19T14:28:31;6.15;;;1.58;;
56477;SDS011;42382;53.210;5.772;2023-05-19T14:30:56;8.43;;;2.05;;
56477;SDS011;42382;53.210;5.772;2023-05-19T14:33:22;6.65;;;2.33;;
56477;SDS011;42382;53.210;5.772;2023-05-19T14:35:48;9.15;;;2.17;;
56477;SDS011;42382;53.210;5.772;2023-05-19T14:38:13;9.30;;;2.28;;
56477;SDS011;42382;53.210;5.772;2023-05-19T14:40:39;6.93;;;2.13;;
56477;SDS011;42382;53.210;5.772;2023-05-19T14:43:05;9.68;;;2.60;;
56477;SDS011;42382;53.210;5.772;2023-05-19T14:45:32;10.60;;;2.72;;
56477;SDS011;42382;53.210;5.772;2023-05-19T14:47:57;9.70;;;2.92;;
56477;SDS011;42382;53.210;5.772;2023-05-19T14:50:23;6.32;;;2.28;;
56477;SDS011;42382;53.210;5.772;2023-05-19T14:52:49;8.68;;;3.30;;
56477;SDS011;42382;53.210;5.772;2023-05-19T14:55:14;8.35;;;2.10;;
56477;SDS011;42382;53.210;5.772;2023-05-19T14:57:40;8.52;;;1.92;;
56477;SDS011;42382;53.210;5.772;2023-05-19T15:00:06;12.77;;;2.03;;
56477;SDS011;42382;53.210;5.772;2023-05-19T15:02:34;8.38;;;1.67;;
56477;SDS011;42382;53.210;5.772;2023-05-19T15:05:00;8.52;;;1.95;;
56477;SDS011;42382;53.210;5.772;2023-05-19T15:07:25;10.80;;;3.58;;
56477;SDS011;42382;53.210;5.772;2023-05-19T15:09:51;11.52;;;2.28;;
56477;SDS011;42382;53.210;5.772;2023-05-19T15:12:17;13.60;;;2.63;;
56477;SDS011;42382;53.210;5.772;2023-05-19T15:14:43;7.65;;;2.00;;
56477;SDS011;42382;53.210;5.772;2023-05-19T15:17:08;8.70;;;1.90;;
56477;SDS011;42382;53.210;5.772;2023-05-19T15:19:34;9.68;;;2.47;;
56477;SDS011;42382;53.210;5.772;2023-05-19T15:22:00;8.18;;;1.42;;
56477;SDS011;42382;53.210;5.772;2023-05-19T15:24:26;11.30;;;2.35;;
56477;SDS011;42382;53.210;5.772;2023-05-19T15:26:51;6.53;;;1.88;;
56477;SDS011;42382;53.210;5.772;2023-05-19T15:29:18;6.45;;;2.10;;
56477;SDS011;42382;53.210;5.772;2023-05-19T15:31:43;7.97;;;1.65;;
56477;SDS011;42382;53.210;5.772;2023-05-19T15:34:09;9.13;;;1.80;;
56477;SDS011;42382;53.210;5.772;2023-05-19T15:36:35;7.68;;;1.73;;
56477;SDS011;42382;53.210;5.772;2023-05-19T15:39:00;8.07;;;2.05;;
56477;SDS011;42382;53.210;5.772;2023-05-19T15:41:27;5.93;;;1.63;;
56477;SDS011;42382;53.210;5.772;2023-05-19T15:43:53;8.18;;;1.90;;
56477;SDS011;42382;53.210;5.772;2023-05-19T15:46:18;9.48;;;2.80;;
56477;SDS011;42382;53.210;5.772;2023-05-19T15:48:44;9.18;;;2.00;;
56477;SDS011;42382;53.210;5.772;2023-05-19T15:51:10;7.70;;;1.85;;
56477;SDS011;42382;53.210;5.772;2023-05-19T15:53:36;12.50;;;2.95;;
56477;SDS011;42382;53.210;5.772;2023-05-19T15:56:02;7.57;;;2.53;;
56477;SDS011;42382;53.210;5.772;2023-05-19T15:58:27;8.82;;;2.65;;
56477;SDS011;42382;53.210;5.772;2023-05-19T16:00:53;10.55;;;3.15;;
56477;SDS011;42382;53.210;5.772;2023-05-19T16:03:19;9.40;;;2.90;;
56477;SDS011;42382;53.210;5.772;2023-05-19T16:05:46;8.95;;;2.00;;
56477;SDS011;42382;53.210;5.772;2023-05-19T16:08:12;10.00;;;1.90;;
56477;SDS011;42382;53.210;5.772;2023-05-19T16:10:37;9.05;;;1.58;;
56477;SDS011;42382;53.210;5.772;2023-05-19T16:13:03;12.00;;;2.42;;
56477;SDS011;42382;53.210;5.772;2023-05-19T16:15:28;9.13;;;2.90;;
56477;SDS011;42382;53.210;5.772;2023-05-19T16:17:54;10.85;;;2.15;;
56477;SDS011;42382;53.210;5.772;2023-05-19T16:20:20;12.40;;;2.70;;
56477;SDS011;42382;53.210;5.772;2023-05-19T16:22:50;16.92;;;2.92;;
56477;SDS011;42382;53.210;5.772;2023-05-19T16:25:16;9.52;;;2.85;;
56477;SDS011;42382;53.210;5.772;2023-05-19T16:27:42;8.88;;;2.85;;
56477;SDS011;42382;53.210;5.772;2023-05-19T16:30:07;12.65;;;2.63;;
56477;SDS011;42382;53.210;5.772;2023-05-19T16:32:33;9.95;;;2.65;;
56477;SDS011;42382;53.210;5.772;2023-05-19T16:34:59;9.43;;;2.03;;
56477;SDS011;42382;53.210;5.772;2023-05-19T16:37:25;8.27;;;1.65;;
56477;SDS011;42382;53.210;5.772;2023-05-19T16:39:50;11.38;;;2.60;;
56477;SDS011;42382;53.210;5.772;2023-05-19T16:42:16;11.35;;;2.35;;
56477;SDS011;42382;53.210;5.772;2023-05-19T16:44:41;9.05;;;1.90;;
56477;SDS011;42382;53.210;5.772;2023-05-19T16:47:07;8.90;;;2.10;;
56477;SDS011;42382;53.210;5.772;2023-05-19T16:49:32;8.10;;;1.70;;
56477;SDS011;42382;53.210;5.772;2023-05-19T16:51:58;13.30;;;2.90;;
56477;SDS011;42382;53.210;5.772;2023-05-19T16:54:24;15.15;;;2.03;;
56477;SDS011;42382;53.210;5.772;2023-05-19T16:56:50;10.00;;;2.42;;
56477;SDS011;42382;53.210;5.772;2023-05-19T16:59:16;11.05;;;1.70;;
56477;SDS011;42382;53.210;5.772;2023-05-19T17:01:42;8.05;;;1.83;;
56477;SDS011;42382;53.210;5.772;2023-05-19T17:04:07;10.95;;;1.73;;
56477;SDS011;42382;53.210;5.772;2023-05-19T17:06:33;12.23;;;2.17;;
56477;SDS011;42382;53.210;5.772;2023-05-19T17:08:59;10.05;;;2.00;;
56477;SDS011;42382;53.210;5.772;2023-05-19T17:11:24;11.07;;;2.10;;
56477;SDS011;42382;53.210;5.772;2023-05-19T17:13:51;8.45;;;1.45;;
56477;SDS011;42382;53.210;5.772;2023-05-19T17:16:16;9.27;;;1.67;;
56477;SDS011;42382;53.210;5.772;2023-05-19T17:18:42;10.30;;;1.50;;
56477;SDS011;42382;53.210;5.772;2023-05-19T17:21:08;9.60;;;2.10;;
56477;SDS011;42382;53.210;5.772;2023-05-19T17:23:33;10.18;;;1.98;;
56477;SDS011;42382;53.210;5.772;2023-05-19T17:25:59;5.28;;;1.40;;
56477;SDS011;42382;53.210;5.772;2023-05-19T17:28:26;13.18;;;2.28;;
56477;SDS011;42382;53.210;5.772;2023-05-19T17:30:55;6.38;;;1.27;;
56477;SDS011;42382;53.210;5.772;2023-05-19T17:33:20;6.50;;;1.10;;
56477;SDS011;42382;53.210;5.772;2023-05-19T17:35:46;11.02;;;1.60;;
56477;SDS011;42382;53.210;5.772;2023-05-19T17:38:11;9.98;;;1.60;;
56477;SDS011;42382;53.210;5.772;2023-05-19T17:40:37;7.03;;;1.02;;
56477;SDS011;42382;53.210;5.772;2023-05-19T17:43:03;5.82;;;1.00;;
56477;SDS011;42382;53.210;5.772;2023-05-19T17:45:29;5.40;;;1.02;;
56477;SDS011;42382;53.210;5.772;2023-05-19T17:47:55;7.38;;;1.13;;
56477;SDS011;42382;53.210;5.772;2023-05-19T17:50:21;5.85;;;1.10;;
56477;SDS011;42382;53.210;5.772;2023-05-19T17:52:46;8.85;;;1.27;;
56477;SDS011;42382;53.210;5.772;2023-05-19T17:55:12;12.00;;;1.55;;
56477;SDS011;42382;53.210;5.772;2023-05-19T17:57:39;11.57;;;1.25;;
56477;SDS011;42382;53.210;5.772;2023-05-19T18:00:08;4.30;;;1.13;;
56477;SDS011;42382;53.210;5.772;2023-05-19T18:02:34;8.10;;;1.52;;
56477;SDS011;42382;53.210;5.772;2023-05-19T18:05:00;7.78;;;1.42;;
56477;SDS011;42382;53.210;5.772;2023-05-19T18:07:26;6.43;;;1.10;;
56477;SDS011;42382;53.210;5.772;2023-05-19T18:09:54;6.35;;;1.25;;
56477;SDS011;42382;53.210;5.772;2023-05-19T18:12:20;7.35;;;1.17;;
56477;SDS011;42382;53.210;5.772;2023-05-19T18:14:47;8.25;;;1.63;;
56477;SDS011;42382;53.210;5.772;2023-05-19T18:17:13;23.75;;;8.85;;
56477;SDS011;42382;53.210;5.772;2023-05-19T18:19:39;10.23;;;3.20;;
56477;SDS011;42382;53.210;5.772;2023-05-19T18:22:05;6.68;;;1.27;;
56477;SDS011;42382;53.210;5.772;2023-05-19T18:24:33;7.13;;;1.05;;
56477;SDS011;42382;53.210;5.772;2023-05-19T18:26:59;8.45;;;1.55;;
56477;SDS011;42382;53.210;5.772;2023-05-19T18:29:25;6.82;;;1.40;;
56477;SDS011;42382;53.210;5.772;2023-05-19T18:31:51;5.32;;;1.02;;
56477;SDS011;42382;53.210;5.772;2023-05-19T18:34:16;6.05;;;1.00;;
56477;SDS011;42382;53.210;5.772;2023-05-19T18:36:42;6.75;;;1.33;;
56477;SDS011;42382;53.210;5.772;2023-05-19T18:39:07;5.15;;;1.80;;
56477;SDS011;42382;53.210;5.772;2023-05-19T18:41:33;8.82;;;1.75;;
56477;SDS011;42382;53.210;5.772;2023-05-19T18:44:01;8.80;;;1.95;;
56477;SDS011;42382;53.210;5.772;2023-05-19T18:46:26;9.27;;;1.80;;
56477;SDS011;42382;53.210;5.772;2023-05-19T18:48:53;9.57;;;1.67;;
56477;SDS011;42382;53.210;5.772;2023-05-19T18:51:19;8.15;;;1.60;;
56477;SDS011;42382;53.210;5.772;2023-05-19T18:53:45;6.47;;;1.67;;
56477;SDS011;42382;53.210;5.772;2023-05-19T18:56:13;9.65;;;1.90;;
56477;SDS011;42382;53.210;5.772;2023-05-19T18:58:50;8.32;;;1.65;;
56477;SDS011;42382;53.210;5.772;2023-05-19T19:01:16;11.57;;;2.40;;
56477;SDS011;42382;53.210;5.772;2023-05-19T19:03:42;9.52;;;1.73;;
56477;SDS011;42382;53.210;5.772;2023-05-19T19:11:01;11.82;;;1.95;;
56477;SDS011;42382;53.210;5.772;2023-05-19T19:13:29;8.15;;;1.95;;
56477;SDS011;42382;53.210;5.772;2023-05-19T19:15:54;7.07;;;2.20;;
56477;SDS011;42382;53.210;5.772;2023-05-19T19:18:21;6.32;;;1.58;;
56477;SDS011;42382;53.210;5.772;2023-05-19T19:20:47;6.15;;;1.50;;
56477;SDS011;42382;53.210;5.772;2023-05-19T19:23:13;8.18;;;1.95;;
56477;SDS011;42382;53.210;5.772;2023-05-19T19:25:38;7.55;;;2.30;;
56477;SDS011;42382;53.210;5.772;2023-05-19T19:28:04;10.48;;;2.20;;
56477;SDS011;42382;53.210;5.772;2023-05-19T19:30:30;10.90;;;2.05;;
56477;SDS011;42382;53.210;5.772;2023-05-19T20:04:33;6.82;;;2.50;;
56477;SDS011;42382;53.210;5.772;2023-05-19T20:06:59;9.32;;;2.55;;
56477;SDS011;42382;53.210;5.772;2023-05-19T21:12:46;13.00;;;4.50;;
56477;SDS011;42382;53.210;5.772;2023-05-19T21:15:12;13.10;;;4.35;;
56477;SDS011;42382;53.210;5.772;2023-05-19T21:17:37;13.00;;;4.80;;
56477;SDS011;42382;53.210;5.772;2023-05-19T21:20:03;13.07;;;4.35;;
56477;SDS011;42382;53.210;5.772;2023-05-19T21:22:29;17.30;;;3.70;;
56477;SDS011;42382;53.210;5.772;2023-05-19T21:24:55;13.43;;;4.78;;
56477;SDS011;42382;53.210;5.772;2023-05-19T21:27:20;14.25;;;4.00;;
56477;SDS011;42382;53.210;5.772;2023-05-19T21:29:49;15.57;;;4.57;;
56477;SDS011;42382;53.210;5.772;2023-05-19T21:32:16;15.93;;;4.20;;
56477;SDS011;42382;53.210;5.772;2023-05-19T21:34:41;19.17;;;4.32;;
56477;SDS011;42382;53.210;5.772;2023-05-19T21:37:07;17.30;;;4.55;;
56477;SDS011;42382;53.210;5.772;2023-05-19T21:39:33;13.52;;;4.13;;
56477;SDS011;42382;53.210;5.772;2023-05-19T21:41:58;16.95;;;4.22;;
56477;SDS011;42382;53.210;5.772;2023-05-19T21:44:24;16.88;;;5.15;;
56477;SDS011;42382;53.210;5.772;2023-05-19T21:46:50;11.68;;;4.60;;
56477;SDS011;42382;53.210;5.772;2023-05-19T21:49:15;13.27;;;4.43;;
56477;SDS011;42382;53.210;5.772;2023-05-19T21:51:41;15.40;;;4.10;;
56477;SDS011;42382;53.210;5.772;2023-05-19T21:54:07;16.20;;;5.05;;
56477;SDS011;42382;53.210;5.772;2023-05-19T21:56:32;13.25;;;3.95;;
56477;SDS011;42382;53.210;5.772;2023-05-19T21:58:58;18.42;;;4.35;;
56477;SDS011;42382;53.210;5.772;2023-05-19T22:01:23;13.10;;;4.10;;
56477;SDS011;42382;53.210;5.772;2023-05-19T22:03:49;13.80;;;3.95;;
56477;SDS011;42382;53.210;5.772;2023-05-19T22:06:14;14.00;;;3.90;;
56477;SDS011;42382;53.210;5.772;2023-05-19T22:08:40;14.20;;;4.05;;
56477;SDS011;42382;53.210;5.772;2023-05-19T22:11:05;15.15;;;4.60;;